EJU62ZB LIML-EBBR
Flight info
| Callsign | EJU62ZB |
|---|---|
| Flight time | N/A |
| Altitude | 34000 |
| Route | ARLES DCT PUNSA DCT VADEM DCT GILIR DCT PENDU DCT IXILU DCT EPL DCT ROUSY DCT DIK Y37 BATTY |
| Aircraft | A320/M-SDE3FGHIRWY/LB1 |
Departure
| Time | 2026-05-01 14:24 |
|---|---|
| Airport | Milano Linate Airport (LIML) |
Arrival
| Time | N/A |
|---|---|
| Airport | Brussels Airport (EBBR) |
| Time | Latitude | Longitude | Altitude | Speed | Heading |
|---|---|---|---|---|---|
| 2026-05-01 13:56 | 45.45974 | 9.27852 | 362 ft | 0 kts | 0° |
| 2026-05-01 14:14 | 45.45972 | 9.27852 | 362 ft | 1 kts | 0° |
| 2026-05-01 14:14 | 45.45957 | 9.27852 | 362 ft | 2 kts | 360° |
| 2026-05-01 14:14 | 45.45943 | 9.27852 | 361 ft | 2 kts | 0° |
| 2026-05-01 14:14 | 45.45927 | 9.27852 | 360 ft | 2 kts | 1° |
| 2026-05-01 14:15 | 45.45913 | 9.27848 | 360 ft | 2 kts | 20° |
| 2026-05-01 14:15 | 45.45899 | 9.27838 | 359 ft | 2 kts | 35° |
| 2026-05-01 14:15 | 45.45892 | 9.27830 | 359 ft | 1 kts | 44° |
| 2026-05-01 14:15 | 45.45901 | 9.27846 | 359 ft | 4 kts | 60° |
| 2026-05-01 14:16 | 45.45906 | 9.27886 | 360 ft | 3 kts | 91° |
| 2026-05-01 14:16 | 45.45906 | 9.27895 | 360 ft | 0 kts | 90° |
| 2026-05-01 14:17 | 45.45906 | 9.27900 | 360 ft | 0 kts | 90° |
| 2026-05-01 14:18 | 45.45906 | 9.27910 | 361 ft | 1 kts | 90° |
| 2026-05-01 14:18 | 45.45905 | 9.27929 | 361 ft | 2 kts | 90° |
| 2026-05-01 14:18 | 45.45902 | 9.27957 | 361 ft | 3 kts | 113° |
| 2026-05-01 14:18 | 45.45887 | 9.27977 | 361 ft | 6 kts | 156° |
| 2026-05-01 14:19 | 45.45796 | 9.27983 | 359 ft | 13 kts | 181° |
| 2026-05-01 14:19 | 45.45688 | 9.27980 | 356 ft | 17 kts | 181° |
| 2026-05-01 14:19 | 45.45555 | 9.27979 | 354 ft | 20 kts | 180° |
| 2026-05-01 14:19 | 45.45412 | 9.27977 | 353 ft | 20 kts | 182° |
| 2026-05-01 14:20 | 45.45281 | 9.27904 | 351 ft | 20 kts | 205° |
| 2026-05-01 14:20 | 45.45012 | 9.27887 | 353 ft | 19 kts | 175° |
| 2026-05-01 14:20 | 45.44881 | 9.27924 | 353 ft | 19 kts | 163° |
| 2026-05-01 14:21 | 45.44749 | 9.27950 | 351 ft | 19 kts | 176° |
| 2026-05-01 14:21 | 45.44608 | 9.27964 | 349 ft | 20 kts | 175° |
| 2026-05-01 14:21 | 45.44461 | 9.27981 | 346 ft | 21 kts | 175° |
| 2026-05-01 14:22 | 45.44144 | 9.28015 | 340 ft | 23 kts | 176° |
| 2026-05-01 14:22 | 45.43982 | 9.28033 | 340 ft | 23 kts | 175° |
| 2026-05-01 14:22 | 45.43825 | 9.28049 | 339 ft | 22 kts | 175° |
| 2026-05-01 14:22 | 45.43671 | 9.28066 | 339 ft | 21 kts | 175° |
| 2026-05-01 14:23 | 45.43542 | 9.28081 | 338 ft | 15 kts | 175° |
| 2026-05-01 14:23 | 45.43451 | 9.28037 | 339 ft | 14 kts | 246° |
| 2026-05-01 14:23 | 45.43440 | 9.27892 | 339 ft | 13 kts | 265° |
| 2026-05-01 14:23 | 45.43459 | 9.27821 | 340 ft | 8 kts | 347° |
| 2026-05-01 14:24 | 45.43554 | 9.27810 | 341 ft | 36 kts | 355° |
| 2026-05-01 14:24 | 45.44080 | 9.27753 | 343 ft | 113 kts | 355° |
| 2026-05-01 14:24 | 45.45068 | 9.27645 | 498 ft | 161 kts | 354° |
| 2026-05-01 14:24 | 45.46172 | 9.27530 | 1228 ft | 162 kts | 352° |
| 2026-05-01 14:25 | 45.47245 | 9.27128 | 2014 ft | 164 kts | 341° |
| 2026-05-01 14:25 | 45.48289 | 9.26600 | 2661 ft | 162 kts | 340° |
| 2026-05-01 14:25 | 45.49351 | 9.26058 | 3241 ft | 164 kts | 340° |
| 2026-05-01 14:25 | 45.50431 | 9.25521 | 3767 ft | 169 kts | 341° |
| 2026-05-01 14:26 | 45.51597 | 9.24942 | 4159 ft | 186 kts | 340° |
| 2026-05-01 14:26 | 45.53661 | 9.22359 | 4926 ft | 222 kts | 301° |
| 2026-05-01 14:26 | 45.54481 | 9.20356 | 5322 ft | 244 kts | 300° |
| 2026-05-01 14:27 | 45.55361 | 9.18218 | 5953 ft | 255 kts | 301° |
| 2026-05-01 14:27 | 45.56267 | 9.16104 | 6706 ft | 261 kts | 302° |
| 2026-05-01 14:27 | 45.57272 | 9.13828 | 7244 ft | 277 kts | 303° |
| 2026-05-01 14:28 | 45.59390 | 9.09172 | 8897 ft | 284 kts | 303° |
| 2026-05-01 14:28 | 45.60482 | 9.06798 | 9732 ft | 288 kts | 304° |
| 2026-05-01 14:28 | 45.61588 | 9.04400 | 10545 ft | 291 kts | 304° |
| 2026-05-01 14:28 | 45.62716 | 9.01962 | 11195 ft | 300 kts | 305° |
| 2026-05-01 14:29 | 45.63872 | 8.99466 | 11871 ft | 307 kts | 305° |
| 2026-05-01 14:29 | 45.65045 | 8.96930 | 12631 ft | 310 kts | 305° |
| 2026-05-01 14:30 | 45.68679 | 8.89050 | 14732 ft | 323 kts | 306° |
| 2026-05-01 14:30 | 45.69913 | 8.86367 | 15389 ft | 327 kts | 306° |
| 2026-05-01 14:30 | 45.71165 | 8.83644 | 16032 ft | 331 kts | 306° |
| 2026-05-01 14:31 | 45.73712 | 8.78095 | 17276 ft | 338 kts | 306° |
| 2026-05-01 14:31 | 45.75016 | 8.75253 | 17877 ft | 342 kts | 306° |
| 2026-05-01 14:31 | 45.76323 | 8.72397 | 18469 ft | 346 kts | 306° |
| 2026-05-01 14:31 | 45.77653 | 8.69490 | 19058 ft | 349 kts | 306° |
| 2026-05-01 14:32 | 45.78994 | 8.66557 | 19623 ft | 352 kts | 306° |
| 2026-05-01 14:32 | 45.79900 | 8.64574 | 20010 ft | 354 kts | 306° |
| 2026-05-01 14:32 | 45.81468 | 8.61134 | 20669 ft | 357 kts | 306° |
| 2026-05-01 14:32 | 45.82816 | 8.58176 | 21213 ft | 360 kts | 306° |
| 2026-05-01 14:33 | 45.84195 | 8.55144 | 21761 ft | 362 kts | 306° |
| 2026-05-01 14:33 | 45.85566 | 8.52128 | 22285 ft | 365 kts | 306° |
| 2026-05-01 14:33 | 45.86942 | 8.49094 | 22797 ft | 368 kts | 306° |
| 2026-05-01 14:33 | 45.88342 | 8.46007 | 23305 ft | 370 kts | 306° |
| 2026-05-01 14:34 | 45.89757 | 8.42886 | 23805 ft | 373 kts | 306° |
| 2026-05-01 14:34 | 45.91167 | 8.39769 | 24286 ft | 375 kts | 306° |
| 2026-05-01 14:34 | 45.92604 | 8.36588 | 24761 ft | 377 kts | 306° |
| 2026-05-01 14:34 | 45.94027 | 8.33438 | 25224 ft | 380 kts | 304° |
| 2026-05-01 14:35 | 45.95475 | 8.30229 | 25679 ft | 382 kts | 304° |
| 2026-05-01 14:35 | 45.96934 | 8.26989 | 26123 ft | 384 kts | 304° |
| 2026-05-01 14:35 | 45.98378 | 8.23778 | 26550 ft | 386 kts | 304° |
| 2026-05-01 14:35 | 45.99842 | 8.20520 | 26974 ft | 388 kts | 304° |
| 2026-05-01 14:36 | 46.01329 | 8.17212 | 27393 ft | 390 kts | 304° |
| 2026-05-01 14:36 | 46.02797 | 8.13936 | 27790 ft | 392 kts | 304° |
| 2026-05-01 14:36 | 46.04272 | 8.10638 | 28178 ft | 394 kts | 304° |
| 2026-05-01 14:36 | 46.05764 | 8.07299 | 28560 ft | 396 kts | 304° |
| 2026-05-01 14:37 | 46.07270 | 8.03927 | 28934 ft | 398 kts | 304° |
| 2026-05-01 14:37 | 46.08757 | 8.00556 | 29295 ft | 400 kts | 303° |
| 2026-05-01 14:37 | 46.10210 | 7.97171 | 29642 ft | 402 kts | 303° |
| 2026-05-01 14:37 | 46.11691 | 7.93697 | 29988 ft | 404 kts | 303° |
| 2026-05-01 14:38 | 46.13155 | 7.90257 | 30319 ft | 406 kts | 303° |
| 2026-05-01 14:38 | 46.14643 | 7.86763 | 30645 ft | 408 kts | 303° |
| 2026-05-01 14:38 | 46.16119 | 7.83296 | 30954 ft | 410 kts | 303° |
| 2026-05-01 14:38 | 46.17625 | 7.79755 | 31264 ft | 411 kts | 303° |
| 2026-05-01 14:39 | 46.19137 | 7.76194 | 31566 ft | 413 kts | 303° |
| 2026-05-01 14:39 | 46.20626 | 7.72684 | 31848 ft | 415 kts | 302° |
| 2026-05-01 14:39 | 46.22148 | 7.69092 | 32130 ft | 417 kts | 302° |
| 2026-05-01 14:39 | 46.23652 | 7.65536 | 32407 ft | 418 kts | 302° |
| 2026-05-01 14:40 | 46.25176 | 7.61932 | 32677 ft | 420 kts | 302° |
| 2026-05-01 14:40 | 46.26697 | 7.58330 | 32932 ft | 422 kts | 302° |
| 2026-05-01 14:40 | 46.28231 | 7.54690 | 33193 ft | 423 kts | 302° |
| 2026-05-01 14:40 | 46.29198 | 7.52396 | 33354 ft | 424 kts | 302° |
| 2026-05-01 14:41 | 46.30728 | 7.48759 | 33587 ft | 425 kts | 302° |
| 2026-05-01 14:41 | 46.32270 | 7.45088 | 33820 ft | 427 kts | 302° |
| 2026-05-01 14:41 | 46.33828 | 7.41376 | 34051 ft | 428 kts | 302° |
| 2026-05-01 14:41 | 46.35381 | 7.37669 | 34197 ft | 430 kts | 302° |
| 2026-05-01 14:42 | 46.36920 | 7.33992 | 34201 ft | 430 kts | 301° |
| 2026-05-01 14:42 | 46.40033 | 7.26538 | 34205 ft | 431 kts | 301° |
| 2026-05-01 14:43 | 46.43115 | 7.19136 | 34206 ft | 431 kts | 301° |
| 2026-05-01 14:43 | 46.46208 | 7.11689 | 34208 ft | 432 kts | 301° |
| 2026-05-01 14:44 | 46.49291 | 7.04247 | 34218 ft | 432 kts | 301° |
| 2026-05-01 14:44 | 46.53915 | 6.93050 | 34239 ft | 432 kts | 300° |
| 2026-05-01 14:45 | 46.58560 | 6.81753 | 34253 ft | 432 kts | 300° |
| 2026-05-01 14:46 | 46.61633 | 6.74253 | 34257 ft | 433 kts | 300° |
| 2026-05-01 14:46 | 46.66244 | 6.62958 | 34258 ft | 433 kts | 300° |
| 2026-05-01 14:47 | 46.69521 | 6.55562 | 34258 ft | 434 kts | 307° |
| 2026-05-01 14:48 | 46.75983 | 6.46352 | 34254 ft | 436 kts | 323° |
| 2026-05-01 14:48 | 46.83797 | 6.39966 | 34247 ft | 438 kts | 334° |
| 2026-05-01 14:49 | 46.94375 | 6.32501 | 34254 ft | 438 kts | 333° |
| 2026-05-01 14:50 | 47.05349 | 6.24639 | 34258 ft | 440 kts | 333° |
| 2026-05-01 14:51 | 47.13610 | 6.18692 | 34258 ft | 441 kts | 333° |
| 2026-05-01 14:52 | 47.21868 | 6.12729 | 34258 ft | 442 kts | 333° |
| 2026-05-01 14:53 | 47.30242 | 6.06999 | 34258 ft | 442 kts | 340° |
| 2026-05-01 14:53 | 47.36165 | 6.04512 | 34258 ft | 443 kts | 349° |
| 2026-05-01 14:54 | 47.42256 | 6.03448 | 34257 ft | 443 kts | 358° |
| 2026-05-01 14:54 | 47.48425 | 6.03491 | 34252 ft | 443 kts | 2° |
| 2026-05-01 14:55 | 47.54583 | 6.03680 | 34244 ft | 444 kts | 1° |
| 2026-05-01 14:55 | 47.60731 | 6.03840 | 34237 ft | 444 kts | 1° |
| 2026-05-01 14:56 | 47.66936 | 6.03986 | 34234 ft | 445 kts | 1° |
| 2026-05-01 14:56 | 47.73137 | 6.04130 | 34233 ft | 445 kts | 1° |
| 2026-05-01 14:57 | 47.79287 | 6.04303 | 34232 ft | 445 kts | 2° |
| 2026-05-01 14:57 | 47.85562 | 6.04502 | 34232 ft | 445 kts | 2° |
| 2026-05-01 14:58 | 47.91744 | 6.04697 | 34232 ft | 445 kts | 2° |
| 2026-05-01 14:58 | 47.97903 | 6.04888 | 34232 ft | 446 kts | 2° |
| 2026-05-01 14:59 | 48.04118 | 6.05082 | 34232 ft | 446 kts | 2° |
| 2026-05-01 14:59 | 48.10305 | 6.05275 | 34232 ft | 446 kts | 2° |
| 2026-05-01 15:00 | 48.19591 | 6.05566 | 34232 ft | 446 kts | 2° |
| 2026-05-01 15:01 | 48.25817 | 6.05763 | 34233 ft | 445 kts | 2° |
| 2026-05-01 15:01 | 48.31978 | 6.05958 | 34232 ft | 445 kts | 2° |
| 2026-05-01 15:02 | 48.38160 | 6.06233 | 34233 ft | 445 kts | 2° |
| 2026-05-01 15:02 | 48.44335 | 6.06534 | 34233 ft | 444 kts | 2° |
| 2026-05-01 15:03 | 48.50519 | 6.06829 | 34233 ft | 444 kts | 2° |
| 2026-05-01 15:03 | 48.56694 | 6.07123 | 34235 ft | 443 kts | 2° |
| 2026-05-01 15:04 | 48.62865 | 6.07416 | 34242 ft | 442 kts | 2° |
| 2026-05-01 15:04 | 48.68995 | 6.07707 | 34250 ft | 442 kts | 2° |
| 2026-05-01 15:05 | 48.75124 | 6.08000 | 34255 ft | 441 kts | 2° |
| 2026-05-01 15:05 | 48.81255 | 6.08292 | 34257 ft | 441 kts | 2° |
| 2026-05-01 15:06 | 48.87370 | 6.08585 | 34259 ft | 440 kts | 2° |
| 2026-05-01 15:06 | 48.93446 | 6.08876 | 34259 ft | 440 kts | 2° |
| 2026-05-01 15:07 | 48.99555 | 6.09171 | 34259 ft | 439 kts | 2° |
| 2026-05-01 15:07 | 49.05664 | 6.09465 | 34259 ft | 439 kts | 2° |
| 2026-05-01 15:08 | 49.11714 | 6.09757 | 34259 ft | 438 kts | 2° |
| 2026-05-01 15:08 | 49.17832 | 6.10053 | 34259 ft | 438 kts | 2° |
| 2026-05-01 15:09 | 49.23923 | 6.10350 | 34259 ft | 437 kts | 2° |
| 2026-05-01 15:09 | 49.30008 | 6.10647 | 34258 ft | 440 kts | 2° |
| 2026-05-01 15:10 | 49.36142 | 6.10953 | 34259 ft | 441 kts | 1° |
| 2026-05-01 15:10 | 49.45318 | 6.11394 | 34259 ft | 440 kts | 1° |
| 2026-05-01 15:11 | 49.54268 | 6.11772 | 34259 ft | 440 kts | 1° |
| 2026-05-01 15:12 | 49.60416 | 6.11998 | 34210 ft | 437 kts | 1° |
| 2026-05-01 15:12 | 49.66426 | 6.12225 | 33366 ft | 431 kts | 1° |
| 2026-05-01 15:12 | 49.69421 | 6.12338 | 32823 ft | 429 kts | 1° |
| 2026-05-01 15:13 | 49.78273 | 6.12677 | 31335 ft | 420 kts | 1° |
| 2026-05-01 15:14 | 49.84049 | 6.12806 | 30360 ft | 414 kts | 358° |
| 2026-05-01 15:14 | 49.86872 | 6.12478 | 29865 ft | 411 kts | 353° |
| 2026-05-01 15:14 | 49.92413 | 6.10621 | 28852 ft | 406 kts | 336° |
| 2026-05-01 15:15 | 49.97158 | 6.06116 | 27906 ft | 399 kts | 326° |
| 2026-05-01 15:15 | 50.01723 | 6.01401 | 26896 ft | 394 kts | 327° |
| 2026-05-01 15:16 | 50.06028 | 5.97027 | 25358 ft | 405 kts | 327° |
| 2026-05-01 15:16 | 50.10790 | 5.92225 | 23650 ft | 415 kts | 327° |
| 2026-05-01 15:17 | 50.15601 | 5.87383 | 22439 ft | 409 kts | 327° |
| 2026-05-01 15:18 | 50.22301 | 5.80626 | 20772 ft | 402 kts | 327° |
| 2026-05-01 15:18 | 50.24665 | 5.78236 | 20186 ft | 399 kts | 327° |
| 2026-05-01 15:19 | 50.31582 | 5.71230 | 18517 ft | 392 kts | 327° |
| 2026-05-01 15:19 | 50.36132 | 5.66606 | 17455 ft | 386 kts | 327° |
| 2026-05-01 15:19 | 50.38364 | 5.64334 | 16941 ft | 384 kts | 327° |
| 2026-05-01 15:20 | 50.42808 | 5.59803 | 15901 ft | 379 kts | 327° |
| 2026-05-01 15:20 | 50.45009 | 5.57555 | 15491 ft | 373 kts | 327° |
| 2026-05-01 15:20 | 50.47157 | 5.55359 | 15243 ft | 364 kts | 327° |
| 2026-05-01 15:21 | 50.49234 | 5.53233 | 14963 ft | 356 kts | 327° |
| 2026-05-01 15:21 | 50.51311 | 5.51106 | 14618 ft | 350 kts | 327° |
| 2026-05-01 15:21 | 50.53332 | 5.49033 | 14371 ft | 342 kts | 327° |
| 2026-05-01 15:21 | 50.55313 | 5.47000 | 14101 ft | 335 kts | 327° |
| 2026-05-01 15:22 | 50.59173 | 5.43031 | 13277 ft | 332 kts | 326° |
| 2026-05-01 15:22 | 50.61084 | 5.41063 | 12870 ft | 330 kts | 326° |
| 2026-05-01 15:22 | 50.63015 | 5.39073 | 12454 ft | 328 kts | 326° |
| 2026-05-01 15:23 | 50.64896 | 5.37133 | 12040 ft | 326 kts | 326° |
| 2026-05-01 15:23 | 50.66789 | 5.35178 | 11611 ft | 325 kts | 326° |
| 2026-05-01 15:23 | 50.68683 | 5.33221 | 11210 ft | 322 kts | 326° |
| 2026-05-01 15:23 | 50.70547 | 5.31293 | 10808 ft | 319 kts | 325° |
| 2026-05-01 15:24 | 50.72392 | 5.29383 | 10412 ft | 317 kts | 325° |
| 2026-05-01 15:24 | 50.74234 | 5.27474 | 10081 ft | 312 kts | 325° |
| 2026-05-01 15:24 | 50.76017 | 5.25625 | 9857 ft | 304 kts | 325° |
| 2026-05-01 15:24 | 50.77765 | 5.23809 | 9543 ft | 299 kts | 325° |
| 2026-05-01 15:25 | 50.79488 | 5.22018 | 9166 ft | 298 kts | 325° |
| 2026-05-01 15:25 | 50.81210 | 5.20228 | 8808 ft | 295 kts | 325° |
| 2026-05-01 15:25 | 50.82930 | 5.18433 | 8433 ft | 294 kts | 325° |
| 2026-05-01 15:25 | 50.84645 | 5.16646 | 8051 ft | 293 kts | 325° |
| 2026-05-01 15:26 | 50.86325 | 5.14889 | 7671 ft | 291 kts | 324° |
| 2026-05-01 15:26 | 50.87860 | 5.12791 | 7269 ft | 290 kts | 310° |
| 2026-05-01 15:26 | 50.89056 | 5.10244 | 6884 ft | 288 kts | 302° |
| 2026-05-01 15:26 | 50.90115 | 5.07580 | 6510 ft | 287 kts | 300° |
| 2026-05-01 15:27 | 50.91156 | 5.04899 | 6132 ft | 286 kts | 300° |
| 2026-05-01 15:27 | 50.92210 | 5.02218 | 5783 ft | 284 kts | 301° |
| 2026-05-01 15:27 | 50.93257 | 4.99575 | 5429 ft | 282 kts | 300° |
| 2026-05-01 15:28 | 50.95306 | 4.94455 | 4969 ft | 269 kts | 301° |
| 2026-05-01 15:28 | 50.96303 | 4.91965 | 4764 ft | 263 kts | 302° |
| 2026-05-01 15:28 | 50.97282 | 4.89515 | 4581 ft | 256 kts | 300° |
| 2026-05-01 15:29 | 50.97521 | 4.84352 | 4142 ft | 237 kts | 245° |
| 2026-05-01 15:29 | 50.96896 | 4.81988 | 3986 ft | 228 kts | 244° |
| 2026-05-01 15:29 | 50.95712 | 4.77400 | 3457 ft | 225 kts | 246° |
| 2026-05-01 15:30 | 50.94803 | 4.73535 | 2950 ft | 226 kts | 246° |
| 2026-05-01 15:31 | 50.92636 | 4.64155 | 1800 ft | 182 kts | 247° |
| 2026-05-01 15:31 | 50.91820 | 4.60636 | 1298 ft | 158 kts | 248° |
| 2026-05-01 15:32 | 50.91122 | 4.57605 | 885 ft | 139 kts | 248° |
| 2026-05-01 15:32 | 50.90462 | 4.54743 | 535 ft | 138 kts | 248° |
| 2026-05-01 15:33 | 50.89499 | 4.50583 | 729 ft | 124 kts | 250° |